Latest Weather Observations for Norfolk Island

IDN60801

Issued at 3:05 pm EST Friday 25 April 2014 (issued every 30 minutes, with the page automatically refreshed every 10 minutes)

About weather observations | Map of weather stations | Latest weather observations for NSW | Other Formats
Station Details ID: 200288 Name: NORFOLK ISLAND AERO Lat: -29.04 Lon: 167.94 Height: 111.73 m
Data from the previous 72 hours. | See also: Recent months at Norfolk Island
Date/Time
EST
Temp
°C
App
Temp
°C
Dew
Point
Rel
Hum
%
Delta-T
°C
Wind Press
QNH
hPa
Press
MSL
hPa
Rain
since 9 am
mm
Dir
 
Spd
km/h
Gust
km/h
Spd
kts
Gust
kts
25/03:00pm 20.3 17.6 13.5 65 3.9 E 20 28 11 15 1019.5 - 0.2
25/02:30pm 20.7 18.4 14.0 65 3.9 E 19 28 10 15 1019.5 - 0.2
25/02:00pm 21.0 18.3 13.5 62 4.3 E 20 30 11 16 1019.5 - 0.2
25/01:30pm 20.8 18.0 13.1 61 4.4 E 20 28 11 15 1019.7 1019.4 0.2
25/01:00pm 21.2 17.7 13.4 61 4.5 E 24 32 13 17 1019.6 - 0.2
25/12:30pm 21.9 19.6 14.0 61 4.6 E 19 28 10 15 1019.9 - 0.2
25/12:00pm 22.4 19.3 14.4 60 4.7 ENE 24 32 13 17 1019.9 - 0.2
25/11:30am 21.7 18.9 14.4 63 4.3 E 22 30 12 16 1020.2 - 0.2
25/11:00am 21.4 18.6 14.2 63 4.2 E 22 30 12 16 1020.4 - 0.2
25/10:30am 22.8 20.1 14.7 60 4.8 ENE 22 37 12 20 1020.7 1020.4 0.2
25/10:00am 22.0 18.2 13.7 59 4.8 ENE 26 35 14 19 1021.2 - 0.0
25/09:30am 21.6 18.3 14.1 62 4.4 ENE 24 32 13 17 1021.4 - 0.0
25/09:00am 22.0 18.1 14.3 61 4.5 E 28 32 15 17 1021.5 - 0.0
25/08:30am 21.6 19.1 14.0 62 4.4 NE 20 32 11 17 1021.7 - 0.0
25/08:00am 21.4 18.6 14.4 64 4.1 ENE 22 30 12 16 1021.7 - 0.0
25/07:30am 20.0 18.1 15.1 73 2.9 ENE 19 28 10 15 1021.6 1021.3 0.2
25/07:00am 19.7 18.1 14.9 74 2.8 ENE 17 24 9 13 1021.5 - 0.2
25/06:30am 19.2 18.0 15.1 77 2.4 ENE 15 20 8 11 1021.2 - 0.2
25/05:30am 18.2 16.5 14.6 79 2.1 ENE 17 19 9 10 1020.3 - 0.2
25/05:00am 18.5 17.2 14.9 79 2.1 E 15 19 8 10 1019.9 - 0.2
25/04:30am 18.7 17.1 15.1 79 2.1 ENE 17 22 9 12 1019.6 1019.3 0.2
25/04:00am 18.8 17.3 15.2 79 2.1 ENE 17 20 9 11 1019.5 - 0.2
25/03:30am 18.4 17.3 15.3 82 1.8 ENE 15 19 8 10 1019.4 - 0.2
25/03:00am 18.4 17.5 15.9 85 1.5 ENE 15 20 8 11 1019.3 - 0.2
25/02:30am 17.6 19.3 16.1 91 0.9 ESE 2 11 1 6 1019.5 - 0.2
25/02:00am 17.1 17.9 15.9 93 0.7 ESE 6 9 3 5 1019.7 - 0.2
25/01:53am 17.1 17.7 15.9 93 0.7 ESE 7 9 4 5 1019.7 - 0.2
25/01:30am 16.9 17.5 15.4 91 0.9 E 6 7 3 4 1020.2 1019.9 0.2
25/01:18am 17.1 17.2 15.4 90 1.0 E 9 13 5 7 1020.4 - 0.0
25/01:13am 17.1 17.1 15.2 88 1.1 ENE 9 13 5 7 1020.5 - 0.0
25/01:00am 17.4 16.6 15.0 86 1.4 NE 13 20 7 11 1020.7 - 0.0
25/12:44am 17.9 15.9 15.5 86 1.4 NNE 20 28 11 15 1020.8 - 0.0
25/12:30am 18.5 16.4 15.3 81 1.9 NE 20 35 11 19 1020.6 - 0.0
25/12:00am 19.4 18.1 14.8 75 2.7 NE 15 20 8 11 1020.7 - 0.0
 
Date/Time
EST
Temp
°C
App
Temp
°C
Dew
Point
Rel
Hum
%
Delta-T
°C
Wind Press
QNH
hPa
Press
MSL
hPa
Rain
since 9 am
mm
Dir
 
Spd
km/h
Gust
km/h
Spd
kts
Gust
kts
24/11:30pm 19.1 17.6 15.2 78 2.3 ENE 17 20 9 11 1020.5 - 0.0
24/11:00pm 18.1 17.6 15.9 87 1.3 E 13 17 7 9 1020.7 - 0.0
24/10:30pm 18.0 17.1 15.8 87 1.3 E 15 19 8 10 1020.9 1020.6 0.0
24/10:00pm 18.2 16.5 14.8 80 2.0 E 17 24 9 13 1020.8 - 0.0
24/09:30pm 18.6 16.9 14.8 78 2.2 E 17 26 9 14 1021.3 - 0.0
24/09:00pm 18.4 17.3 14.2 76 2.4 E 13 17 7 9 1021.3 - 0.0
24/08:30pm 18.5 17.1 14.5 77 2.3 E 15 19 8 10 1021.4 - 0.0
24/08:00pm 19.0 17.4 15.1 78 2.3 ENE 17 22 9 12 1021.7 - 0.0
24/07:30pm 18.7 16.8 15.1 79 2.1 ENE 19 24 10 13 1021.6 1021.3 0.0
24/07:00pm 19.2 17.2 14.9 76 2.5 E 19 26 10 14 1021.5 - 0.0
24/06:30pm 19.3 17.3 15.0 76 2.5 ENE 19 26 10 14 1021.3 - 0.0
24/06:00pm 19.1 17.7 14.6 75 2.6 ENE 15 20 8 11 1021.3 - 0.0
24/05:30pm 19.0 17.3 14.7 76 2.5 ENE 17 26 9 14 1020.7 - 0.0
24/05:00pm 18.9 17.7 15.0 78 2.3 E 15 19 8 10 1020.3 - 0.0
24/04:30pm 19.0 16.7 14.1 73 2.8 ENE 19 28 10 15 1019.9 1019.6 0.0
24/04:00pm 19.9 17.9 14.0 69 3.4 E 17 26 9 14 1019.7 - 0.0
24/03:30pm 19.8 17.4 14.3 70 3.2 E 20 30 11 16 1019.2 - 0.0
24/03:00pm 19.8 16.5 15.0 74 2.8 E 26 32 14 17 1019.0 - 0.0
24/02:30pm 20.8 17.0 13.5 63 4.2 E 26 35 14 19 1019.1 - 0.0
24/02:00pm 21.4 17.7 14.0 62 4.3 E 26 32 14 17 1019.3 - 0.0
24/01:30pm 21.9 18.5 13.8 60 4.7 E 24 33 13 18 1019.4 1019.1 0.0
24/01:00pm 22.0 18.7 14.1 61 4.6 E 24 33 13 18 1019.7 - 0.0
24/12:30pm 22.0 19.4 13.7 59 4.8 ENE 20 30 11 16 1020.0 - 0.0
24/12:00pm 22.0 18.3 13.9 60 4.7 E 26 33 14 18 1020.0 - 0.0
24/11:30am 21.7 19.2 14.0 61 4.5 ENE 20 32 11 17 1020.6 - 0.0
24/11:00am 21.7 17.7 13.0 57 5.0 ENE 26 35 14 19 1020.9 - 0.0
24/10:30am 21.1 17.9 14.2 64 4.0 E 24 32 13 17 1021.3 1021.0 0.0
24/10:00am 21.5 18.5 14.9 66 3.9 ENE 24 33 13 18 1021.5 - 0.0
24/09:30am 21.2 18.5 14.6 66 3.9 E 22 32 12 17 1021.9 - 0.0
24/09:00am 21.8 18.6 13.1 57 5.0 ENE 22 33 12 18 1021.9 - 0.0
24/08:30am 20.8 18.3 14.1 65 3.9 E 20 28 11 15 1022.1 - 0.0
24/08:00am 20.3 17.3 13.7 66 3.8 E 22 30 12 16 1022.1 - 0.0
24/07:30am 20.6 18.1 14.2 66 3.7 E 20 26 11 14 1022.0 1021.7 0.0
24/07:00am 20.0 16.5 14.5 70 3.2 E 26 30 14 16 1021.8 - 0.0
24/06:30am 19.1 17.8 15.7 80 2.0 E 17 28 9 15 1021.5 - 0.0
24/06:00am 17.8 17.2 13.4 75 2.5 E 9 13 5 7 1021.3 - 0.0
24/05:30am 17.8 16.0 13.4 75 2.5 E 15 17 8 9 1021.0 - 0.0
24/05:00am 17.3 15.8 13.2 77 2.3 E 13 17 7 9 1020.8 - 0.0
24/04:30am 17.0 15.3 12.5 75 2.5 E 13 15 7 8 1020.9 1020.6 0.0
24/04:00am 17.2 15.5 12.3 73 2.7 ENE 13 15 7 8 1020.8 - 0.0
24/03:30am 17.2 15.6 12.7 75 2.5 ENE 13 17 7 9 1020.9 - 0.0
24/03:00am 17.8 16.5 13.8 77 2.3 E 13 17 7 9 1020.9 - 0.0
24/02:30am 17.5 16.0 13.2 76 2.4 E 13 17 7 9 1020.9 - 0.0
24/02:00am 17.7 16.8 13.8 78 2.2 E 11 15 6 8 1020.8 - 0.0
24/01:30am 17.2 16.4 12.9 76 2.4 E 9 11 5 6 1021.0 1020.7 0.0
24/01:00am 17.5 16.4 13.0 75 2.5 E 11 15 6 8 1021.4 - 0.0
24/12:30am 17.7 16.2 13.1 74 2.6 E 13 17 7 9 1021.8 - 0.0
24/12:00am 17.5 16.1 12.3 71 2.9 E 11 17 6 9 1021.7 - 0.0
 
Date/Time
EST
Temp
°C
App
Temp
°C
Dew
Point
Rel
Hum
%
Delta-T
°C
Wind Press
QNH
hPa
Press
MSL
hPa
Rain
since 9 am
mm
Dir
 
Spd
km/h
Gust
km/h
Spd
kts
Gust
kts
23/11:30pm 17.4 15.5 11.9 70 3.0 E 13 19 7 10 1021.9 - 0.0
23/11:00pm 17.9 15.6 11.9 68 3.3 E 15 20 8 11 1021.9 - 0.0
23/10:30pm 17.7 15.4 11.7 68 3.3 E 15 22 8 12 1022.1 1021.8 0.0
23/10:00pm 17.7 15.5 12.1 69 3.1 E 15 24 8 13 1022.2 - 0.0
23/09:30pm 17.8 15.5 11.8 68 3.3 E 15 20 8 11 1022.6 - 0.0
23/09:00pm 18.3 16.3 12.6 69 3.2 E 15 22 8 12 1022.8 - 0.0
23/08:30pm 18.4 16.0 12.5 68 3.3 E 17 22 9 12 1023.1 - 0.0
23/08:00pm 18.1 15.8 12.9 71 2.9 E 17 22 9 12 1022.9 - 0.0
23/07:30pm 18.4 16.3 13.5 73 2.8 E 17 22 9 12 1022.9 1022.6 0.0
23/07:00pm 18.6 16.2 13.7 73 2.8 E 19 26 10 14 1022.5 - 0.0
23/06:30pm 18.6 15.6 13.7 73 2.8 E 22 32 12 17 1022.3 - 0.0
23/06:00pm 18.4 16.3 13.5 73 2.8 E 17 26 9 14 1022.2 - 0.0
23/05:30pm 18.6 17.0 13.9 74 2.7 E 15 24 8 13 1022.2 - 0.0
23/05:00pm 19.0 17.8 14.1 73 2.8 ESE 13 20 7 11 1021.8 - 0.0
23/04:30pm 18.7 17.2 13.2 70 3.1 E 13 19 7 10 1021.5 1021.2 0.0
23/04:00pm 19.0 17.1 13.0 68 3.4 E 15 19 8 10 1021.4 - 0.0
23/03:30pm 19.7 17.9 13.2 66 3.7 E 15 24 8 13 1021.6 - 0.0
23/03:00pm 20.4 17.6 12.6 61 4.4 E 19 28 10 15 1021.5 - 0.0
23/02:30pm 21.0 18.0 12.7 59 4.7 E 20 28 11 15 1021.7 - 0.0
23/02:00pm 20.9 18.2 12.8 60 4.6 E 19 30 10 16 1021.6 - 0.0
23/01:30pm 21.0 18.3 12.9 60 4.6 ESE 19 26 10 14 1021.5 1021.2 0.0
23/01:00pm 21.3 18.7 13.1 59 4.7 E 19 26 10 14 1021.7 - 0.0
23/12:30pm 20.5 17.8 12.9 61 4.3 E 19 30 10 16 1021.7 - 0.0
23/12:00pm 22.2 19.2 13.8 59 4.9 E 22 28 12 15 1022.0 - 0.0
23/11:30am 21.5 18.9 13.9 62 4.4 E 20 30 11 16 1022.2 - 0.0
23/11:00am 22.2 18.8 13.6 58 5.0 E 24 32 13 17 1022.6 - 0.0
23/10:30am 21.5 19.6 14.1 62 4.3 SE 17 24 9 13 1022.9 1022.6 0.0
23/10:00am 21.7 19.8 14.2 62 4.4 SE 17 28 9 15 1023.3 - 0.0
23/09:30am 21.0 18.7 12.9 60 4.6 ESE 17 24 9 13 1023.7 - 0.0
23/09:00am 21.0 19.6 13.5 62 4.3 ESE 13 20 7 11 1024.1 - 0.0
23/08:30am 20.2 18.7 14.2 68 3.5 SE 15 22 8 12 1024.2 - 0.0
23/08:00am 20.4 18.8 12.8 61 4.3 ESE 13 20 7 11 1024.5 - 0.0
23/07:30am 20.2 18.4 13.2 64 4.0 ESE 15 20 8 11 1024.5 1024.1 0.0
23/07:00am 20.2 18.7 13.2 64 4.0 ESE 13 17 7 9 1024.2 - 0.0
23/06:30am 19.8 19.1 13.1 65 3.8 ESE 9 11 5 6 1024.1 - 0.0
23/06:00am 18.8 18.3 12.7 67 3.4 E 7 9 4 5 1024.0 - 0.0
23/05:30am 17.6 16.6 12.2 70 3.0 ESE 9 15 5 8 1023.6 - 0.0
23/05:00am 17.9 16.4 11.9 68 3.3 ESE 11 13 6 7 1023.4 - 0.0
23/04:30am 18.2 16.8 12.3 68 3.3 ESE 11 15 6 8 1023.2 1022.8 0.0
23/04:00am 18.2 17.0 12.7 70 3.1 ESE 11 15 6 8 1022.8 - 0.0
23/03:30am 17.9 16.8 13.1 73 2.7 ESE 11 13 6 7 1022.5 - 0.0
23/03:00am 17.8 16.4 13.4 75 2.5 E 13 19 7 10 1022.1 - 0.0
23/02:30am 16.7 15.7 13.5 81 1.8 E 11 15 6 8 1022.0 - 0.0
23/02:00am 17.1 15.8 13.8 81 1.9 E 13 15 7 8 1021.9 - 0.0
23/01:30am 16.4 15.4 13.4 82 1.7 E 11 13 6 7 1022.1 1021.8 0.0
23/01:00am 16.2 15.4 13.0 81 1.8 ENE 9 9 5 5 1022.7 - 0.0
23/12:30am 17.1 16.8 13.4 79 2.1 ENE 7 9 4 5 1023.2 - 0.0
23/12:00am 16.8 16.0 12.9 78 2.2 ENE 9 11 5 6 1022.8 - 0.0
 
Date/Time
EST
Temp
°C
App
Temp
°C
Dew
Point
Rel
Hum
%
Delta-T
°C
Wind Press
QNH
hPa
Press
MSL
hPa
Rain
since 9 am
mm
Dir
 
Spd
km/h
Gust
km/h
Spd
kts
Gust
kts
22/11:30pm 16.5 16.0 12.7 78 2.1 ENE 7 7 4 4 1023.1 - 0.0
22/11:00pm 16.9 15.9 12.2 74 2.6 NE 9 9 5 5 1023.2 - 0.0
22/10:30pm 16.3 15.2 11.9 75 2.4 E 9 11 5 6 1023.4 1023.0 0.0
22/10:00pm 16.6 16.0 12.4 76 2.3 ENE 7 7 4 4 1023.6 - 0.0
22/09:30pm 16.8 15.8 12.3 75 2.5 E 9 11 5 6 1023.7 - 0.0
22/09:00pm 17.1 16.1 12.2 73 2.7 E 9 9 5 5 1023.7 - 0.0
22/08:30pm 16.9 15.9 12.2 74 2.6 E 9 11 5 6 1023.8 - 0.0
22/08:00pm 17.5 16.4 12.1 70 3.0 E 9 11 5 6 1023.9 - 0.0
22/07:30pm 18.0 17.0 12.2 69 3.2 ESE 9 13 5 7 1023.8 1023.4 0.0
22/07:00pm 17.7 16.2 11.9 69 3.2 ESE 11 15 6 8 1023.7 - 0.0
22/06:30pm 18.1 16.6 11.9 67 3.4 ESE 11 17 6 9 1023.6 - 0.0
22/06:00pm 18.1 16.7 12.3 69 3.2 ESE 11 17 6 9 1023.4 - 0.0
22/05:30pm 18.3 16.9 12.2 67 3.4 ESE 11 15 6 8 1023.2 - 0.0
22/05:00pm 18.6 17.3 12.5 67 3.4 ESE 11 19 6 10 1022.8 - 0.0
22/04:30pm 18.8 17.1 12.3 66 3.6 SE 13 20 7 11 1022.5 1022.2 0.0
22/04:00pm 19.4 17.8 12.8 65 3.7 SE 13 20 7 11 1022.3 - 0.0
22/03:30pm 19.9 17.2 11.8 59 4.5 SE 17 24 9 13 1022.1 - 0.0
22/03:00pm 20.3 18.5 12.1 59 4.6 SE 13 20 7 11 1022.2 - 0.0
22/02:30pm 20.3 17.9 12.5 61 4.4 SE 17 24 9 13 1022.3 - 0.0
22/02:00pm 21.0 18.3 11.7 55 5.2 SE 17 26 9 14 1022.4 - 0.0

Other Formats:

Comma delimited format used in spreadsheet applications
http://www.bom.gov.au/fwo/IDN60801/IDN60801.94996.axf

JavaScript Object Notation format (JSON) in row-major order
http://www.bom.gov.au/fwo/IDN60801/IDN60801.94996.json